DRMK1: NF Cottowood River nr Durham, KS

Data processed at Wed May 22 2019 23:50


All information presented herein is the property of the government of the United States of America and may be revised or deleted at any time without prior notice.
Dissemination of this information without the expressed written consent of the Public Affairs Office, Tulsa District U.S. Army Corps of Engineers is strictly prohibited.
These data are gathered electronically and, as presented, have not undergone any form of quality control. These data are not guaranteed to be valid or correct.
Go to home page.
Go to station list.
Go to home page.

Upstream stations:

Downstream station:
Previous Day
Next Day
Current Day
    
SHEF ID:       DRMK1     NF Cottonwood Rvr nr Durham, KS
STATION TYPE:  

               PRECIP     STAGE  RIV-FLOW  BAT-LOAD
                   in        ft       cfs      volt
              Ccp-Rev   Ccp-Rev   Ccp-Rev   Ccp-Rev
(US/Central)
05/22 00:00      0.00     23.46      2292     12.73
05/22 01:00      0.00     22.55      2081     12.70
05/22 02:00      0.00     21.33      1809     12.63
05/22 03:00      0.00     19.83      1491     12.63
05/22 04:00      0.00     18.41      1208     12.59
05/22 05:00      0.00     17.30      1000     12.57
05/22 06:00      0.00     16.40       841     12.51
05/22 07:00      0.00     15.72       727     12.52
05/22 08:00      0.00     15.26       653     12.74
05/22 09:00      0.00     14.86       590     13.55
05/22 10:00      0.00     14.48       533     13.82
05/22 11:00      0.00     14.14       483     13.75
05/22 12:00      0.00     13.87       445     13.35
05/22 13:00      0.00     13.64       413     13.36
05/22 14:00      0.00     13.45       387     13.41
05/22 15:00      0.00     13.29       365     13.34
05/22 16:00      0.00     13.12       343     13.22
05/22 17:00      0.00     13.02       330     13.12
05/22 18:00      0.00     12.90       315     13.05
05/22 19:00      0.00     12.79       301     13.16
05/22 20:00      0.00     12.69       289     12.99
05/22 21:00      0.00     12.60       278     12.84
05/22 22:00      0.00     12.50       266     12.80
05/22 23:00      0.00     12.43       257     12.74